Time;durP1;ratioP1;P1;durP2;ratioP2;P2;SDS_P1;SDS_P2;PMS_P1;PMS_P2;Temp;Humidity;BMP_temperature;BMP_pressure;BME280_temperature;BME280_humidity;BME280_pressure;Samples;Min_cycle;Max_cycle;Signal;HPM_P1;HPM_P2
2022/05/25 00:00:40;;;;;;;23.40;21.50;;;;;;;14.94;87.03;97461.16;105911;1279;24422;-83
2022/05/25 00:03:08;;;;;;;24.20;22.20;;;;;;;14.92;87.52;97462.87;105600;1281;24427;-83
2022/05/25 00:05:38;;;;;;;20.70;18.70;;;;;;;14.88;87.26;97457.70;105886;1280;24230;-83
2022/05/25 00:08:09;;;;;;;21.20;19.40;;;;;;;14.84;87.44;97458.20;105895;1280;23437;-84
2022/05/25 00:10:37;;;;;;;20.50;18.80;;;;;;;14.78;87.13;97456.91;105883;1280;22641;-85
2022/05/25 00:13:05;;;;;;;20.80;18.90;;;;;;;14.76;87.03;97455.60;105915;1281;22626;-85
2022/05/25 00:15:34;;;;;;;22.20;20.30;;;;;;;14.75;87.11;97457.27;105896;1280;22889;-87
2022/05/25 00:18:03;;;;;;;20.80;19.00;;;;;;;14.76;86.65;97457.22;105838;1280;23523;-86
2022/05/25 00:20:31;;;;;;;20.40;18.60;;;;;;;14.77;86.72;97455.64;105832;1281;22573;-87
2022/05/25 00:22:59;;;;;;;20.90;19.10;;;;;;;14.79;86.85;97461.64;105813;1281;22889;-85
2022/05/25 00:25:33;;;;;;;20.60;18.90;;;;;;;14.80;86.55;97462.64;105835;1280;25465;-86
2022/05/25 00:28:03;;;;;;;21.90;20.10;;;;;;;14.81;86.62;97461.27;105866;1281;25131;-84
2022/05/25 00:30:32;;;;;;;20.40;18.50;;;;;;;14.82;86.55;97461.23;105771;1280;25472;-81
2022/05/25 00:33:00;;;;;;;20.10;18.50;;;;;;;14.86;86.62;97459.56;105677;1280;25556;-82
2022/05/25 00:35:31;;;;;;;22.00;20.20;;;;;;;14.90;86.78;97460.63;105877;1280;25428;-82
2022/05/25 00:37:59;;;;;;;25.10;22.90;;;;;;;14.95;86.74;97467.85;105950;1279;24227;-84
2022/05/25 00:40:34;;;;;;;34.70;32.00;;;;;;;14.96;86.64;97463.86;105893;1279;22601;-84
2022/05/25 00:43:03;;;;;;;30.70;28.20;;;;;;;14.99;86.75;97465.97;105996;1279;22612;-85
2022/05/25 00:45:35;;;;;;;21.20;19.40;;;;;;;14.97;86.84;97463.73;105802;1279;22876;-82
2022/05/25 00:48:05;;;;;;;20.10;18.40;;;;;;;14.96;86.65;97465.02;105851;1279;22592;-83
2022/05/25 00:51:11;;;;;;;18.50;16.80;;;;;;;14.96;86.60;97462.05;105961;1280;22712;-83
2022/05/25 00:53:22;;;;;;;19.40;17.70;;;;;;;14.96;86.57;97465.02;106888;1279;24282;-84
2022/05/25 00:55:50;;;;;;;22.40;20.50;;;;;;;14.99;86.54;97465.98;105832;1281;22721;-83
2022/05/25 00:58:18;;;;;;;24.40;22.30;;;;;;;15.01;86.58;97472.70;105472;1281;24300;-86
2022/05/25 01:00:46;;;;;;;25.00;22.90;;;;;;;15.00;86.78;97481.66;105816;1280;22699;-83
2022/05/25 01:03:15;;;;;;;22.10;20.30;;;;;;;15.02;86.79;97484.17;105877;1280;22680;-84
2022/05/25 01:06:03;;;;;;;24.80;22.70;;;;;;;15.04;86.76;97485.80;106081;1280;22686;-85
2022/05/25 01:08:49;;;;;;;22.80;20.90;;;;;;;15.05;86.57;97489.33;106428;1281;22800;-83
2022/05/25 01:11:47;;;;;;;22.00;20.20;;;;;;;15.05;86.54;97494.90;106003;1281;24483;-86
2022/05/25 01:14:34;;;;;;;20.60;18.80;;;;;;;15.03;86.76;97497.17;105883;1281;22563;-86
2022/05/25 01:17:25;;;;;;;21.70;19.90;;;;;;;15.01;86.74;97509.97;105662;1281;22562;-84
2022/05/25 01:20:08;;;;;;;21.00;19.20;;;;;;;14.99;86.63;97513.18;105796;1281;22628;-87
2022/05/25 01:22:59;;;;;;;21.30;19.50;;;;;;;15.03;86.95;97515.22;105826;1281;22563;-85
2022/05/25 01:25:37;;;;;;;20.90;19.20;;;;;;;15.03;87.00;97515.95;106836;1281;22636;-84
2022/05/25 01:28:28;;;;;;;23.00;21.10;;;;;;;14.95;87.53;97512.81;109511;1280;22651;-85
2022/05/25 01:30:56;;;;;;;20.90;19.30;;;;;;;14.87;87.42;97519.29;109040;1281;22770;-85
2022/05/25 01:33:41;;;;;;;25.50;23.20;;;;;;;14.84;87.32;97518.88;106229;1280;22736;-86
2022/05/25 01:36:19;;;;;;;;;;;;;;;14.86;87.55;97519.71;106175;1281;22627;-84
2022/05/25 01:38:51;;;;;;;19.30;17.70;;;;;;;14.88;87.15;97517.45;106235;1280;23013;-83
2022/05/25 01:41:38;;;;;;;19.40;17.70;;;;;;;14.85;87.34;97515.86;106089;1281;25462;-86
2022/05/25 01:45:07;;;;;;;20.40;18.70;;;;;;;14.82;87.42;97511.42;105841;1281;25421;-84
2022/05/25 01:47:43;;;;;;;19.00;17.40;;;;;;;14.88;87.61;97507.61;104885;1287;22615;-85
2022/05/25 01:50:35;;;;;;;19.20;17.50;;;;;;;14.92;87.98;97510.52;104947;1287;24121;-85
2022/05/25 01:53:07;;;;;;;21.30;19.50;;;;;;;14.84;88.22;97513.89;104709;1287;22563;-85
2022/05/25 01:55:46;;;;;;;21.60;19.80;;;;;;;14.74;88.23;97508.38;105005;1287;22542;-84
2022/05/25 01:58:18;;;;;;;22.70;20.80;;;;;;;14.70;88.01;97501.73;104947;1287;22862;-84
2022/05/25 02:00:54;;;;;;;20.80;19.20;;;;;;;14.70;88.10;97498.23;104918;1287;22828;-85
2022/05/25 02:06:37;;;;;;;23.40;21.40;;;;;;;14.73;87.97;97495.63;104524;1287;23660;-85
2022/05/25 02:09:27;;;;;;;20.60;18.80;;;;;;;14.75;88.04;97498.89;105003;1287;22545;-85
2022/05/25 02:12:07;;;;;;;21.50;19.60;;;;;;;14.76;88.26;97502.02;104835;1287;22637;-84
2022/05/25 02:15:00;;;;;;;22.00;20.30;;;;;;;14.73;88.77;97502.46;104854;1287;22625;-85
2022/05/25 02:17:52;;;;;;;22.40;20.60;;;;;;;14.70;88.52;97507.86;104886;1287;22804;-85
2022/05/25 02:20:53;;;;;;;23.40;21.50;;;;;;;14.68;88.64;97509.80;104850;1287;24614;-85
2022/05/25 02:23:46;;;;;;;22.30;20.20;;;;;;;14.65;88.45;97507.67;105589;1281;22674;-85
2022/05/25 02:26:20;;;;;;;22.30;20.50;;;;;;;14.63;88.58;97510.00;105775;1280;24781;-85
2022/05/25 02:28:59;;;;;;;25.50;23.50;;;;;;;14.61;88.18;97517.36;105897;1279;22732;-85
2022/05/25 02:31:32;;;;;;;27.90;25.80;;;;;;;14.58;88.58;97514.23;105901;1279;22675;-85
2022/05/25 02:34:04;;;;;;;22.80;21.00;;;;;;;14.53;88.53;97511.23;105881;1280;22774;-84
2022/05/25 02:36:35;;;;;;;22.50;20.80;;;;;;;14.51;88.34;97510.06;105878;1281;24115;-84
2022/05/25 02:39:06;;;;;;;22.50;20.60;;;;;;;14.50;88.37;97503.98;105896;1280;24263;-85
2022/05/25 02:41:42;;;;;;;20.20;18.50;;;;;;;14.52;88.43;97504.52;105856;1280;24410;-85
2022/05/25 02:44:10;;;;;;;19.20;17.60;;;;;;;14.50;88.48;97500.11;106008;1280;22860;-85
2022/05/25 02:46:38;;;;;;;20.70;19.00;;;;;;;14.46;88.37;97498.63;106025;1280;24615;-84
2022/05/25 02:49:06;;;;;;;22.20;20.50;;;;;;;14.41;88.50;97501.52;106024;1279;25421;-83
2022/05/25 02:51:34;;;;;;;21.70;19.80;;;;;;;14.41;88.56;97499.76;106132;1281;24426;-85
2022/05/25 02:54:03;;;;;;;21.20;19.50;;;;;;;14.43;88.60;97497.65;105891;1280;24354;-85
2022/05/25 02:56:32;;;;;;;20.60;18.80;;;;;;;14.44;88.73;97502.52;105840;1280;24264;-85
2022/05/25 02:59:00;;;;;;;21.30;19.50;;;;;;;14.47;88.49;97507.08;105802;1280;23039;-85
2022/05/25 03:01:28;;;;;;;21.20;19.30;;;;;;;14.46;88.77;97505.66;105873;1280;22612;-85
2022/05/25 03:03:56;;;;;;;19.60;18.00;;;;;;;14.43;88.70;97504.77;105913;1280;22998;-83
2022/05/25 03:06:24;;;;;;;23.90;22.00;;;;;;;14.42;88.69;97502.36;105901;1280;22557;-84
2022/05/25 03:08:52;;;;;;;21.90;20.10;;;;;;;14.44;88.97;97502.17;105946;1280;22616;-83
2022/05/25 03:11:21;;;;;;;19.60;18.00;;;;;;;14.43;88.84;97497.88;105996;1280;22556;-83
2022/05/25 03:13:49;;;;;;;19.90;18.20;;;;;;;14.35;88.92;97498.23;105903;1280;24436;-83
2022/05/25 03:16:19;;;;;;;18.60;17.00;;;;;;;14.30;88.92;97493.44;105933;1280;22562;-83
2022/05/25 03:18:47;;;;;;;20.10;17.30;;;;;;;14.29;88.87;97498.65;105928;1281;24238;-85
2022/05/25 03:21:15;;;;;;;21.50;19.80;;;;;;;14.29;88.85;97505.63;106007;1281;22569;-85
2022/05/25 03:23:43;;;;;;;20.00;18.30;;;;;;;14.33;89.13;97513.79;105993;1280;22889;-83
2022/05/25 03:26:12;;;;;;;19.30;17.70;;;;;;;14.36;88.93;97519.48;105928;1281;22733;-84
2022/05/25 03:28:40;;;;;;;21.30;19.60;;;;;;;14.38;89.12;97518.48;105773;1280;22889;-84
2022/05/25 03:31:08;;;;;;;19.20;17.60;;;;;;;14.42;89.10;97519.22;105810;1280;25431;-84
2022/05/25 03:33:36;;;;;;;16.90;15.50;;;;;;;14.46;88.90;97523.05;105803;1281;22561;-84
2022/05/25 03:36:05;;;;;;;18.70;17.00;;;;;;;14.49;89.05;97523.05;105918;1280;22572;-83
2022/05/25 03:38:33;;;;;;;20.60;18.90;;;;;;;14.50;89.56;97518.20;105932;1281;22714;-85
2022/05/25 03:41:01;;;;;;;20.90;19.10;;;;;;;14.48;89.75;97513.02;105910;1281;22632;-85
2022/05/25 03:43:32;;;;;;;19.60;17.90;;;;;;;14.45;89.79;97513.46;105946;1280;22595;-85
2022/05/25 03:46:01;;;;;;;20.50;18.70;;;;;;;14.44;89.87;97509.09;105828;1280;24346;-84
2022/05/25 03:48:29;;;;;;;19.00;17.20;;;;;;;14.46;89.93;97509.70;105731;1281;22560;-84
2022/05/25 03:50:57;;;;;;;18.90;17.10;;;;;;;14.47;90.07;97509.73;106161;1280;22698;-83
2022/05/25 03:53:25;;;;;;;19.30;17.60;;;;;;;14.47;90.28;97506.86;106244;1281;22554;-85
2022/05/25 03:55:53;;;;;;;20.80;19.10;;;;;;;14.48;90.15;97507.52;105919;1281;24269;-85
2022/05/25 03:58:21;;;;;;;22.20;20.40;;;;;;;14.50;90.36;97510.77;105929;1280;22705;-85
2022/05/25 04:00:49;;;;;;;20.80;19.00;;;;;;;14.53;90.41;97514.46;105890;1281;22568;-83
2022/05/25 04:03:22;;;;;;;20.80;18.90;;;;;;;14.58;90.52;97510.67;105748;1280;22654;-83
2022/05/25 04:05:50;;;;;;;21.20;19.40;;;;;;;14.62;90.93;97509.42;106437;1280;22513;-83
2022/05/25 04:08:18;;;;;;;24.20;21.80;;;;;;;14.64;91.27;97509.26;108763;1279;22617;-82
2022/05/25 04:10:46;;;;;;;25.00;22.60;;;;;;;14.65;90.93;97513.09;106415;1279;25867;-83
2022/05/25 04:13:14;;;;;;;24.60;22.50;;;;;;;14.68;91.10;97513.20;106613;1279;25755;-84
2022/05/25 04:15:42;;;;;;;24.80;22.40;;;;;;;14.73;90.94;97513.75;105976;1280;22811;-84
2022/05/25 04:18:10;;;;;;;26.70;24.10;;;;;;;14.81;90.88;97518.05;105887;1280;22554;-85
2022/05/25 04:20:38;;;;;;;23.30;21.20;;;;;;;14.89;90.82;97521.13;105886;1279;22670;-84
2022/05/25 04:23:10;;;;;;;26.10;23.60;;;;;;;14.96;90.70;97524.70;105780;1280;24284;-84
2022/05/25 04:25:40;;;;;;;27.80;25.20;;;;;;;15.03;90.74;97523.90;105758;1280;24560;-84
2022/05/25 04:28:09;;;;;;;24.60;22.50;;;;;;;15.08;90.72;97523.39;105807;1279;22571;-83
2022/05/25 04:30:37;;;;;;;26.00;23.60;;;;;;;15.12;90.66;97527.24;106135;1279;22697;-84
2022/05/25 04:33:05;;;;;;;27.30;24.70;;;;;;;15.16;90.65;97525.52;106131;1279;25005;-84
2022/05/25 04:35:33;;;;;;;28.80;26.30;;;;;;;15.21;90.68;97527.92;105930;1279;24414;-84
2022/05/25 04:38:01;;;;;;;26.50;24.10;;;;;;;15.29;90.53;97531.98;105811;1279;22629;-84
2022/05/25 04:40:32;;;;;;;25.10;22.90;;;;;;;15.33;90.46;97531.20;105747;1280;22564;-83
2022/05/25 04:43:04;;;;;;;24.00;21.70;;;;;;;15.38;90.46;97526.60;105778;1279;22981;-84
2022/05/25 04:45:33;;;;;;;77.00;70.50;;;;;;;15.42;90.52;97523.27;105969;1279;22563;-83
2022/05/25 04:48:02;;;;;;;38.20;35.00;;;;;;;15.45;90.65;97519.47;105713;1279;24442;-83
2022/05/25 04:50:33;;;;;;;26.20;23.90;;;;;;;15.48;90.69;97515.60;105722;1280;24505;-84
2022/05/25 04:53:04;;;;;;;26.00;23.80;;;;;;;15.54;90.72;97515.09;105887;1279;25496;-83
2022/05/25 04:58:25;;;;;;;25.40;23.10;;;;;;;15.75;90.81;97511.35;105927;1279;22642;-84
2022/05/25 05:00:54;;;;;;;26.80;24.20;;;;;;;15.85;90.71;97514.67;105778;1280;22889;-84
2022/05/25 05:03:24;;;;;;;28.00;25.60;;;;;;;15.91;90.51;97514.39;105847;1279;24309;-85
2022/05/25 05:05:53;;;;;;;29.30;26.50;;;;;;;15.95;90.43;97515.59;105823;1280;22702;-84
2022/05/25 05:08:22;;;;;;;30.00;27.30;;;;;;;15.98;90.43;97511.64;105727;1280;22571;-84
2022/05/25 05:10:50;;;;;;;26.50;24.10;;;;;;;16.04;90.57;97511.04;105799;1279;24231;-84
2022/05/25 05:13:19;;;;;;;27.80;25.20;;;;;;;16.11;90.51;97510.64;105816;1280;23937;-84
2022/05/25 05:15:50;;;;;;;31.40;28.50;;;;;;;16.20;90.50;97504.11;105838;1279;24248;-85
2022/05/25 05:18:20;;;;;;;30.30;27.60;;;;;;;16.25;90.28;97504.20;105886;1279;22995;-86
2022/05/25 05:20:58;;;;;;;30.00;27.40;;;;;;;16.25;90.08;97505.28;105908;1280;22571;-85
2022/05/25 05:23:26;;;;;;;30.50;28.00;;;;;;;16.26;90.24;97500.34;105899;1280;25410;-85
2022/05/25 05:25:55;;;;;;;30.70;28.20;;;;;;;16.28;90.19;97502.48;105889;1279;22560;-85
2022/05/25 05:28:30;;;;;;;28.00;25.70;;;;;;;16.29;90.33;97502.91;105925;1279;22662;-85
2022/05/25 05:31:00;;;;;;;29.50;27.20;;;;;;;16.32;90.26;97505.55;105828;1281;22672;-84
2022/05/25 05:33:28;;;;;;;29.90;27.50;;;;;;;16.28;90.20;97505.66;105886;1280;22566;-83
2022/05/25 05:36:05;;;;;;;29.20;26.80;;;;;;;16.32;90.46;97508.89;105914;1280;25410;-83
2022/05/25 05:38:39;;;;;;;30.00;27.60;;;;;;;16.33;90.35;97505.83;105963;1280;25526;-84
2022/05/25 05:41:09;;;;;;;32.40;29.70;;;;;;;16.32;90.58;97500.60;105979;1280;22615;-84
2022/05/25 05:43:38;;;;;;;32.10;29.40;;;;;;;16.33;90.49;97498.73;105957;1280;25490;-83
2022/05/25 05:46:08;;;;;;;32.90;30.10;;;;;;;16.36;90.54;97497.50;105780;1281;24304;-85
2022/05/25 05:48:38;;;;;;;30.60;28.10;;;;;;;16.41;90.50;97500.67;105777;1280;24525;-85
2022/05/25 05:51:06;;;;;;;32.10;29.30;;;;;;;16.46;90.52;97507.95;105948;1279;22701;-86
2022/05/25 05:53:34;;;;;;;30.70;28.20;;;;;;;16.47;90.45;97515.36;105884;1280;25656;-85
2022/05/25 05:56:02;;;;;;;32.40;29.70;;;;;;;16.45;90.51;97520.52;105944;1280;22633;-84
2022/05/25 05:58:30;;;;;;;33.50;30.70;;;;;;;16.44;90.34;97521.02;106064;1280;25357;-84
2022/05/25 06:00:58;;;;;;;34.70;31.90;;;;;;;16.43;90.43;97519.20;105943;1280;22681;-84
2022/05/25 06:03:26;;;;;;;34.90;31.80;;;;;;;16.41;90.45;97518.52;105779;1280;24438;-84
2022/05/25 06:05:54;;;;;;;34.50;31.60;;;;;;;16.42;90.44;97519.96;105789;1280;22695;-83
2022/05/25 06:08:26;;;;;;;32.80;30.00;;;;;;;16.44;90.39;97524.98;105872;1280;25476;-82
2022/05/25 06:10:55;;;;;;;32.10;29.50;;;;;;;16.43;90.34;97526.98;105840;1280;22626;-83
2022/05/25 06:13:23;;;;;;;33.60;30.90;;;;;;;16.43;90.33;97525.42;106448;1279;26490;-84
2022/05/25 06:21:27;;;;;;;33.20;30.60;;;;;;;16.50;90.31;97518.56;105740;1281;22539;-83
2022/05/25 06:23:57;;;;;;;36.50;33.50;;;;;;;16.52;90.28;97520.00;105702;1280;22561;-84
2022/05/25 06:26:30;;;;;;;33.00;30.10;;;;;;;16.53;90.23;97514.28;105798;1279;22550;-84
2022/05/25 06:28:59;;;;;;;33.80;30.90;;;;;;;16.55;90.11;97511.23;105715;1280;22613;-84
2022/05/25 06:31:28;;;;;;;32.50;29.90;;;;;;;16.60;90.28;97511.91;105766;1279;22697;-84
2022/05/25 06:33:57;;;;;;;31.60;28.80;;;;;;;16.69;90.43;97512.21;105860;1280;22563;-84
2022/05/25 06:36:29;;;;;;;30.00;27.70;;;;;;;16.79;90.33;97502.10;105888;1280;25713;-84
2022/05/25 06:38:58;;;;;;;32.20;29.60;;;;;;;16.88;90.14;97501.08;105777;1281;24404;-84
2022/05/25 06:41:28;;;;;;;33.20;30.30;;;;;;;16.93;90.21;97496.08;105738;1280;25477;-82
2022/05/25 06:43:56;;;;;;;32.80;29.00;;;;;;;17.00;90.16;97501.56;106016;1280;22608;-84
2022/05/25 06:46:24;;;;;;;30.20;27.80;;;;;;;17.06;89.90;97509.17;106403;1280;22632;-84
2022/05/25 06:48:55;;;;;;;30.20;27.50;;;;;;;17.11;89.73;97522.67;105947;1279;22714;-83
2022/05/25 06:51:28;;;;;;;30.80;28.40;;;;;;;17.12;89.63;97522.63;105991;1279;25429;-84
2022/05/25 06:53:58;;;;;;;28.40;25.90;;;;;;;17.14;89.67;97521.73;105872;1279;25469;-84
2022/05/25 06:56:26;;;;;;;27.10;24.90;;;;;;;17.18;89.58;97518.34;105780;1279;23077;-86
2022/05/25 06:58:56;;;;;;;27.90;25.50;;;;;;;17.21;89.48;97522.07;105780;1279;23885;-81
2022/05/25 07:01:24;;;;;;;27.00;24.70;;;;;;;17.28;89.64;97523.64;105958;1280;23742;-83
2022/05/25 07:03:53;;;;;;;29.40;26.60;;;;;;;17.32;89.18;97518.52;105800;1280;25235;-84
2022/05/25 07:06:23;;;;;;;26.70;24.30;;;;;;;17.35;89.39;97515.88;106182;1280;22641;-82
2022/05/25 07:08:52;;;;;;;25.70;23.40;;;;;;;17.41;89.25;97522.15;105943;1280;24316;-84
2022/05/25 07:11:21;;;;;;;25.40;23.30;;;;;;;17.45;88.98;97525.94;105793;1280;25292;-84
2022/05/25 07:13:50;;;;;;;25.20;23.00;;;;;;;17.51;89.30;97522.34;106698;1280;22556;-83
2022/05/25 07:16:20;;;;;;;24.20;22.10;;;;;;;17.60;89.04;97517.01;107985;1279;22484;-84
2022/05/25 07:18:49;;;;;;;25.00;22.70;;;;;;;17.69;89.31;97519.71;106108;1280;22730;-86
2022/05/25 07:21:21;;;;;;;22.40;20.00;;;;;;;17.79;89.22;97523.52;105931;1282;24359;-84
2022/05/25 07:23:50;;;;;;;26.90;21.10;;;;;;;17.83;88.42;97526.88;106107;1281;22573;-83
2022/05/25 07:26:19;;;;;;;23.80;21.40;;;;;;;17.80;88.28;97526.84;106320;1281;22633;-84
2022/05/25 07:28:48;;;;;;;24.90;22.70;;;;;;;17.79;88.24;97528.52;105986;1281;22723;-84
2022/05/25 07:31:19;;;;;;;22.80;20.50;;;;;;;17.77;88.20;97534.30;105982;1281;24298;-85
2022/05/25 07:33:54;;;;;;;21.80;19.80;;;;;;;17.74;87.89;97541.16;105863;1282;22570;-83
2022/05/25 07:36:24;;;;;;;24.10;20.40;;;;;;;17.66;87.56;97547.20;105905;1282;22636;-84
2022/05/25 07:38:54;;;;;;;22.80;20.80;;;;;;;17.56;87.33;97554.80;105914;1282;25453;-84
2022/05/25 07:41:22;;;;;;;40.30;32.20;;;;;;;17.45;87.26;97553.78;105880;1283;24429;-84
2022/05/25 07:43:57;;;;;;;45.10;33.20;;;;;;;17.31;87.06;97550.63;108127;1281;22604;-82
2022/05/25 07:46:28;;;;;;;92.10;58.80;;;;;;;17.21;87.19;97552.81;108594;1281;22642;-85
2022/05/25 07:48:57;;;;;;;41.50;37.10;;;;;;;17.06;86.77;97557.15;107045;1281;22538;-85
2022/05/25 07:51:26;;;;;;;28.60;26.00;;;;;;;16.83;87.13;97559.89;106366;1281;22615;-84
2022/05/25 07:53:57;;;;;;;32.30;29.40;;;;;;;16.68;87.36;97556.04;106021;1280;22800;-83
2022/05/25 07:56:32;;;;;;;34.70;31.90;;;;;;;16.53;87.61;97555.69;106196;1281;22700;-84
2022/05/25 08:05:46;;;;;;;35.50;32.40;;;;;;;16.18;88.24;97565.11;106200;1281;25366;-84
2022/05/25 08:08:22;;;;;;;36.90;33.80;;;;;;;16.12;88.86;97570.50;106176;1281;24086;-84
2022/05/25 08:11:03;;;;;;;34.20;31.30;;;;;;;16.03;88.92;97573.66;106000;1281;24011;-83
2022/05/25 08:13:34;;;;;;;37.80;33.20;;;;;;;15.98;89.33;97576.84;106169;1281;25374;-84
2022/05/25 08:16:09;;;;;;;36.00;32.80;;;;;;;15.91;89.93;97575.64;106329;1281;23952;-84
2022/05/25 08:18:37;;;;;;;34.60;31.80;;;;;;;15.86;89.52;97576.50;106431;1281;25335;-82
2022/05/25 08:21:06;;;;;;;29.60;27.20;;;;;;;15.86;89.84;97575.04;106594;1281;22543;-84
2022/05/25 08:23:36;;;;;;;30.20;27.70;;;;;;;15.85;90.96;97569.49;107067;1281;22545;-84
2022/05/25 08:26:05;;;;;;;28.90;26.40;;;;;;;15.81;90.28;97567.56;107508;1282;22536;-84
2022/05/25 08:28:33;;;;;;;31.10;28.60;;;;;;;15.71;90.02;97559.32;106221;1282;22551;-84
2022/05/25 08:31:01;;;;;;;26.70;24.40;;;;;;;15.80;90.48;97571.19;106034;1282;22593;-85
2022/05/25 08:37:46;;;;;;;26.50;24.40;;;;;;;15.79;90.55;97568.04;105836;1282;24292;-85
2022/05/25 08:40:18;;;;;;;26.70;24.50;;;;;;;15.82;91.17;97573.41;105957;1281;22591;-84
2022/05/25 08:42:58;;;;;;;27.20;24.80;;;;;;;15.79;91.45;97577.49;105958;1282;22759;-85
2022/05/25 08:45:46;;;;;;;21.00;19.20;;;;;;;15.77;91.89;97582.65;105805;1282;22817;-86
2022/05/25 08:48:17;;;;;;;21.10;19.40;;;;;;;15.72;91.78;97578.36;106372;1282;22550;-84
2022/05/25 08:50:51;;;;;;;22.00;20.20;;;;;;;15.73;92.12;97578.40;106008;1282;23933;-85
2022/05/25 08:53:21;;;;;;;19.60;18.00;;;;;;;15.71;92.12;97579.27;105766;1283;24243;-84
2022/05/25 08:56:11;;;;;;;19.80;18.10;;;;;;;15.68;92.54;97577.64;105988;1282;24232;-86
2022/05/25 08:58:42;;;;;;;20.90;18.90;;;;;;;15.64;92.44;97578.49;106100;1282;25377;-86
2022/05/25 09:01:14;;;;;;;19.70;18.20;;;;;;;15.66;92.98;97583.37;106462;1282;22712;-81
2022/05/25 09:03:53;;;;;;;19.50;17.70;;;;;;;15.64;92.69;97586.10;106459;1282;23210;-85
2022/05/25 09:06:49;;;;;;;19.70;18.20;;;;;;;15.67;93.13;97587.69;105731;1282;24236;-82
2022/05/25 09:09:25;;;;;;;20.80;19.20;;;;;;;15.66;93.18;97589.89;105933;1282;22540;-83
2022/05/25 09:12:05;;;;;;;19.60;18.10;;;;;;;15.67;92.93;97593.97;105814;1282;22561;-82
2022/05/25 09:14:43;;;;;;;21.10;19.30;;;;;;;15.69;93.82;97596.20;105899;1282;22619;-82
2022/05/25 09:17:22;;;;;;;21.10;19.40;;;;;;;15.64;93.68;97593.33;106213;1281;22725;-81
2022/05/25 09:19:50;;;;;;;19.90;18.30;;;;;;;15.65;93.60;97588.39;106081;1282;24338;-80
2022/05/25 09:22:23;;;;;;;20.10;18.40;;;;;;;15.71;93.86;97593.79;105625;1282;25530;-81
2022/05/25 09:24:55;;;;;;;18.60;16.90;;;;;;;15.75;93.62;97588.94;105591;1282;22573;-79
2022/05/25 09:27:30;;;;;;;20.20;18.20;;;;;;;15.80;93.44;97588.96;105965;1282;22709;-80
2022/05/25 09:30:03;;;;;;;17.80;16.40;;;;;;;15.87;93.36;97591.11;106085;1282;23387;-81
2022/05/25 09:32:43;;;;;;;20.00;18.50;;;;;;;15.89;93.31;97592.11;106059;1282;25379;-82
2022/05/25 09:35:41;;;;;;;21.50;19.80;;;;;;;15.89;93.14;97595.84;106250;1282;22898;-82
2022/05/25 09:38:16;;;;;;;19.20;17.60;;;;;;;15.96;93.43;97599.45;106166;1282;22558;-81
2022/05/25 09:40:52;;;;;;;14.80;13.60;;;;;;;15.95;93.69;97605.03;106102;1282;23938;-84
2022/05/25 09:43:23;;;;;;;14.60;10.00;;;;;;;15.74;92.03;97613.29;106049;1282;25445;-84
2022/05/25 09:45:55;;;;;;;13.10;8.40;;;;;;;15.26;91.39;97619.04;106089;1283;25368;-81
2022/05/25 09:48:22;;;;;;;10.30;8.50;;;;;;;14.93;92.24;97619.16;106031;1282;22722;-83
2022/05/25 09:51:13;;;;;;;12.00;7.30;;;;;;;14.78;92.67;97624.66;106055;1281;23940;-81
2022/05/25 09:53:53;;;;;;;8.10;7.10;;;;;;;14.72;92.70;97633.69;106080;1282;24385;-83
2022/05/25 09:56:29;;;;;;;7.30;5.80;;;;;;;14.61;91.54;97634.43;106105;1283;24797;-83
2022/05/25 09:59:06;;;;;;;13.10;6.30;;;;;;;14.30;90.55;97646.33;105916;1282;24239;-80
2022/05/25 10:01:48;;;;;;;8.90;6.00;;;;;;;14.12;91.72;97643.46;105792;1282;22562;-83
2022/05/25 10:04:52;;;;;;;8.40;7.00;;;;;;;14.03;90.82;97646.83;105856;1283;22539;-83
2022/05/25 10:07:35;;;;;;;6.80;5.90;;;;;;;13.84;90.67;97646.61;105090;1288;24384;-84
2022/05/25 10:10:08;;;;;;;8.50;7.10;;;;;;;13.60;90.79;97646.83;105215;1288;24239;-83
2022/05/25 10:12:39;;;;;;;11.00;7.90;;;;;;;13.40;90.30;97647.54;105180;1288;25563;-83
2022/05/25 10:15:10;;;;;;;8.90;6.40;;;;;;;13.23;90.15;97647.66;105210;1289;23901;-82
2022/05/25 10:17:43;;;;;;;7.40;5.50;;;;;;;13.11;90.10;97645.70;105670;1288;24387;-83
2022/05/25 10:20:47;;;;;;;7.10;5.70;;;;;;;12.99;89.85;97644.38;105088;1288;331029;-85
2022/05/25 10:23:18;;;;;;;6.30;4.80;;;;;;;12.86;90.11;97645.16;104594;1294;22606;-83
2022/05/25 10:25:50;;;;;;;9.20;5.10;;;;;;;12.78;90.33;97645.11;104718;1294;24375;-83
2022/05/25 10:28:29;;;;;;;8.10;5.50;;;;;;;12.64;90.84;97647.80;104649;1294;22651;-84
2022/05/25 10:37:08;;;;;;;7.90;6.70;;;;;;;12.27;92.38;97652.55;104614;1294;24140;-83
2022/05/25 10:39:45;;;;;;;7.70;6.60;;;;;;;12.24;92.54;97638.69;104544;1293;25428;-83
2022/05/25 10:42:26;;;;;;;7.80;6.30;;;;;;;12.26;92.73;97631.49;104630;1294;25388;-83
2022/05/25 10:44:59;;;;;;;7.60;6.30;;;;;;;12.29;93.46;97646.06;105034;1288;22683;-83
2022/05/25 10:47:30;;;;;;;8.00;6.70;;;;;;;12.29;94.04;97650.70;105086;1288;22616;-82
2022/05/25 10:49:59;;;;;;;9.80;6.80;;;;;;;12.33;94.02;97650.55;105170;1288;23417;-82
2022/05/25 10:52:40;;;;;;;7.60;5.40;;;;;;;12.37;94.07;97657.45;105218;1288;25337;-84
2022/05/25 10:55:08;;;;;;;11.20;5.70;;;;;;;12.47;94.55;97660.64;105216;1288;22562;-79
2022/05/25 10:58:41;;;;;;;13.50;6.20;;;;;;;12.52;94.52;97658.36;105619;1283;22625;-82
2022/05/25 11:01:30;;;;;;;8.20;5.60;;;;;;;12.56;94.55;97658.06;105174;1288;22572;-83
2022/05/25 11:04:12;;;;;;;7.30;5.90;;;;;;;12.56;94.64;97661.15;105249;1287;24529;-81
2022/05/25 11:06:52;;;;;;;9.70;5.20;;;;;;;12.58;94.43;97662.98;105241;1287;25646;-82
2022/05/25 11:09:32;;;;;;;6.00;5.40;;;;;;;12.68;94.44;97665.30;105053;1288;22570;-82
2022/05/25 11:12:36;;;;;;;7.60;5.80;;;;;;;12.69;94.08;97666.66;105103;1288;24293;-82
2022/05/25 11:15:36;;;;;;;6.60;5.00;;;;;;;12.70;94.10;97675.35;105193;1287;22570;-82
2022/05/25 11:18:16;;;;;;;7.20;5.60;;;;;;;12.75;94.15;97673.22;105243;1288;22583;-82
2022/05/25 11:21:07;;;;;;;9.20;5.20;;;;;;;12.84;94.21;97681.59;105219;1287;22653;-82
2022/05/25 11:23:41;;;;;;;5.80;4.90;;;;;;;12.86;93.99;97680.54;105420;1287;22576;-84
2022/05/25 11:26:47;;;;;;;5.90;5.30;;;;;;;12.86;93.86;97684.77;105403;1287;22590;-84
2022/05/25 11:29:39;;;;;;;6.50;5.40;;;;;;;12.77;93.19;97691.64;105233;1288;25435;-80
2022/05/25 11:32:26;;;;;;;8.80;5.90;;;;;;;12.66;93.62;97701.64;105823;1280;22712;-84
2022/05/25 11:35:12;;;;;;;8.10;5.90;;;;;;;12.63;93.84;97711.55;106190;1281;22877;-82
2022/05/25 11:38:21;;;;;;;9.20;6.40;;;;;;;12.52;93.67;97709.64;106268;1281;25365;-80
2022/05/25 11:40:59;;;;;;;6.90;5.70;;;;;;;12.52;93.97;97717.75;106419;1281;22566;-83
2022/05/25 11:43:58;;;;;;;9.00;5.50;;;;;;;12.42;94.13;97718.84;106037;1281;25726;-81
2022/05/25 11:46:45;;;;;;;6.20;5.30;;;;;;;12.34;94.24;97720.06;106020;1281;22743;-82
2022/05/25 11:49:48;;;;;;;7.20;5.90;;;;;;;12.28;93.92;97729.75;106252;1281;23492;-81
2022/05/25 11:52:35;;;;;;;6.90;6.10;;;;;;;12.21;93.99;97733.38;106082;1281;25583;-85
2022/05/25 11:55:27;;;;;;;7.40;5.70;;;;;;;12.19;94.06;97735.38;106347;1281;25370;-81
2022/05/25 11:57:55;;;;;;;7.30;6.00;;;;;;;12.15;94.06;97733.16;106096;1281;22667;-82
2022/05/25 12:00:51;;;;;;;7.70;6.50;;;;;;;12.13;94.12;97739.81;106151;1281;23351;-83
2022/05/25 12:03:40;;;;;;;10.20;8.10;;;;;;;12.17;93.88;97740.68;106364;1281;25372;-83
2022/05/25 12:06:23;;;;;;;10.00;6.40;;;;;;;12.16;94.04;97737.30;106303;1281;22744;-85
2022/05/25 12:09:22;;;;;;;7.50;6.50;;;;;;;12.19;93.90;97730.35;106451;1281;22709;-84
2022/05/25 12:12:15;;;;;;;10.90;9.70;;;;;;;12.27;93.78;97727.80;106304;1281;23951;-83
2022/05/25 12:14:54;;;;;;;11.20;9.90;;;;;;;12.29;93.98;97734.06;106334;1281;23930;-84